createdAt,value
2022-09-23T00:02:16.702Z,88.25
2022-09-23T00:04:43.408Z,88.74
2022-09-23T00:07:09.900Z,89.17
2022-09-23T00:09:36.332Z,88.81
2022-09-23T00:12:06.868Z,89.40
2022-09-23T00:14:37.099Z,89.58
2022-09-23T00:17:03.512Z,88.52
2022-09-23T00:19:29.943Z,88.17
2022-09-23T00:21:56.765Z,88.99
2022-09-23T00:24:23.705Z,88.98
2022-09-23T00:26:50.102Z,88.86
2022-09-23T00:29:16.641Z,88.52
2022-09-23T00:31:43.228Z,88.82
2022-09-23T00:34:11.102Z,88.45
2022-09-23T00:36:37.570Z,88.94
2022-09-23T00:39:04.479Z,88.15
2022-09-23T00:41:31.150Z,88.70
2022-09-23T00:44:01.714Z,88.51
2022-09-23T00:46:39.880Z,89.35
2022-09-23T00:49:12.698Z,89.12
2022-09-23T00:51:44.557Z,89.43
2022-09-23T00:54:11.451Z,89.12
2022-09-23T00:56:39.130Z,88.63
2022-09-23T00:59:07.514Z,89.12
2022-09-23T01:01:34.078Z,89.25
2022-09-23T01:04:00.810Z,88.99
2022-09-23T01:06:29.151Z,88.71
2022-09-23T01:08:55.565Z,89.15
2022-09-23T01:11:36.097Z,88.95
2022-09-23T01:14:13.821Z,89.13
2022-09-23T01:17:03.932Z,88.43
2022-09-23T01:19:36.599Z,88.34
2022-09-23T01:22:27.980Z,89.08
2022-09-23T01:25:28.612Z,89.18
2022-09-23T01:28:33.296Z,89.38
2022-09-23T01:31:16.212Z,89.57
2022-09-23T01:33:53.110Z,89.44
2022-09-23T01:36:24.772Z,88.64
2022-09-23T01:39:08.574Z,89.30
2022-09-23T01:41:41.712Z,89.27
2022-09-23T01:44:19.935Z,88.96
2022-09-23T01:46:57.607Z,88.83
2022-09-23T01:49:42.617Z,89.13
2022-09-23T01:52:26.512Z,89.42
2022-09-23T01:55:17.600Z,89.25
2022-09-23T01:57:49.617Z,89.31
2022-09-23T02:00:18.316Z,89.70
2022-09-23T02:03:00.277Z,89.76
2022-09-23T02:05:38.199Z,88.81
2022-09-23T02:08:16.796Z,89.12
2022-09-23T02:11:18.800Z,89.89
2022-09-23T02:13:53.699Z,89.63
2022-09-23T02:16:39.315Z,90.02
2022-09-23T02:19:14.060Z,89.76
2022-09-23T02:21:47.091Z,89.54
2022-09-23T02:24:31.586Z,89.95
2022-09-23T02:27:12.433Z,89.87
2022-09-23T02:29:57.229Z,89.61
2022-09-23T02:32:33.285Z,89.87
2022-09-23T02:35:09.005Z,90.20
2022-09-23T02:37:53.159Z,89.57
2022-09-23T02:40:41.934Z,89.04
2022-09-23T02:43:21.443Z,89.26
2022-09-23T02:45:48.202Z,89.25
2022-09-23T02:48:26.373Z,89.54
2022-09-23T02:50:54.196Z,89.94
2022-09-23T02:53:23.613Z,89.93
2022-09-23T02:55:50.976Z,89.86
2022-09-23T02:58:17.736Z,89.87
2022-09-23T03:01:21.899Z,90.05
2022-09-23T03:04:04.992Z,90.28
2022-09-23T03:06:56.051Z,90.52
2022-09-23T03:09:30.657Z,90.21
2022-09-23T03:12:09.984Z,89.80
2022-09-23T03:15:01.923Z,89.87
2022-09-23T03:18:10.992Z,89.88
2022-09-23T03:20:44.651Z,89.66
2022-09-23T03:23:15.252Z,89.45
2022-09-23T03:25:45.725Z,89.29
2022-09-23T03:28:14.748Z,90.08
2022-09-23T03:30:43.477Z,89.47
2022-09-23T03:33:12.471Z,89.57
2022-09-23T03:36:06.684Z,89.89
2022-09-23T03:38:37.934Z,90.01
2022-09-23T03:41:06.722Z,89.76
2022-09-23T03:43:38.068Z,89.33
2022-09-23T03:46:07.097Z,89.74
2022-09-23T03:48:33.657Z,89.50
2022-09-23T03:51:13.623Z,90.17
2022-09-23T03:53:40.040Z,90.24
2022-09-23T03:56:06.410Z,90.67
2022-09-23T03:58:32.946Z,90.44
2022-09-23T04:00:59.589Z,90.25
2022-09-23T04:03:28.003Z,90.04
2022-09-23T04:05:54.382Z,89.53
2022-09-23T04:08:20.806Z,89.69
2022-09-23T04:10:49.047Z,89.14
2022-09-23T04:13:17.162Z,89.60
2022-09-23T04:15:43.584Z,89.36
2022-09-23T04:18:09.955Z,90.36
2022-09-23T04:20:39.050Z,90.54
2022-09-23T04:23:05.466Z,89.66
2022-09-23T04:25:32.200Z,89.90
2022-09-23T04:27:58.688Z,89.90
2022-09-23T04:30:25.127Z,89.38
2022-09-23T04:32:53.231Z,89.04
2022-09-23T04:35:19.769Z,89.95
2022-09-23T04:37:48.585Z,89.89
2022-09-23T04:40:15.106Z,89.89
2022-09-23T04:42:41.570Z,89.51
2022-09-23T04:45:08.326Z,89.21
2022-09-23T04:47:34.716Z,89.19
2022-09-23T04:50:01.181Z,89.42
2022-09-23T04:52:27.584Z,89.40
2022-09-23T04:54:54.009Z,89.72
2022-09-23T04:57:20.380Z,90.20
2022-09-23T04:59:47.067Z,90.07
2022-09-23T05:02:13.515Z,89.96
2022-09-23T05:04:41.727Z,90.44
2022-09-23T05:07:08.130Z,90.00
2022-09-23T05:09:34.491Z,90.38
2022-09-23T05:12:01.124Z,89.65
2022-09-23T05:14:27.668Z,89.54
2022-09-23T05:16:54.095Z,89.02
2022-09-23T05:19:20.564Z,89.02
2022-09-23T05:21:47.015Z,88.60
2022-09-23T05:24:13.442Z,88.82
2022-09-23T05:26:40.228Z,88.71
2022-09-23T05:29:06.663Z,89.10
2022-09-23T05:31:33.303Z,88.67
2022-09-23T05:34:02.979Z,89.45
2022-09-23T05:36:35.736Z,87.79
2022-09-23T05:39:05.009Z,84.69
2022-09-23T05:41:31.486Z,82.71
2022-09-23T05:43:59.611Z,77.84
2022-09-23T05:46:28.457Z,74.04
2022-09-23T05:49:01.163Z,71.82
2022-09-23T05:51:31.086Z,71.08
2022-09-23T05:53:59.018Z,69.47
2022-09-23T05:56:27.529Z,70.15
2022-09-23T05:58:55.982Z,71.52
2022-09-23T06:01:25.196Z,70.97
2022-09-23T06:03:57.398Z,67.56
2022-09-23T06:06:30.094Z,65.89
2022-09-23T06:08:57.096Z,63.21
2022-09-23T06:11:23.473Z,60.92
2022-09-23T06:13:55.009Z,60.42
2022-09-23T06:16:21.534Z,63.51
2022-09-23T06:18:47.925Z,65.16
2022-09-23T06:21:16.329Z,66.54
2022-09-23T06:23:44.013Z,68.02
2022-09-23T06:26:12.660Z,70.33
2022-09-23T06:28:41.234Z,71.19
2022-09-23T06:31:13.319Z,71.50
2022-09-23T06:33:41.745Z,71.28
2022-09-23T06:36:08.731Z,71.47
2022-09-23T06:38:38.938Z,71.43
2022-09-23T06:41:05.403Z,71.15
2022-09-23T06:43:31.928Z,70.62
2022-09-23T06:46:03.879Z,70.77
2022-09-23T06:48:31.626Z,70.67
2022-09-23T06:51:02.558Z,70.07
2022-09-23T06:53:32.329Z,69.54
2022-09-23T06:56:02.405Z,68.13
2022-09-23T06:58:29.758Z,67.90
2022-09-23T07:01:05.008Z,68.13
2022-09-23T07:03:34.307Z,67.63
2022-09-23T07:06:01.513Z,67.41
2022-09-23T07:08:29.501Z,65.33
2022-09-23T07:10:57.943Z,65.25
2022-09-23T07:13:24.883Z,64.31
2022-09-23T07:15:52.897Z,64.74
2022-09-23T07:18:20.670Z,63.11
2022-09-23T07:20:48.316Z,63.07
2022-09-23T07:23:14.973Z,63.18
2022-09-23T07:25:42.971Z,63.98
2022-09-23T07:28:10.231Z,63.27
2022-09-23T07:30:38.165Z,62.77
2022-09-23T07:33:18.830Z,60.47
2022-09-23T07:35:47.472Z,59.62
2022-09-23T07:38:13.911Z,59.02
2022-09-23T07:40:40.487Z,58.96
2022-09-23T07:43:08.328Z,59.33
2022-09-23T07:45:34.962Z,57.56
2022-09-23T07:48:01.807Z,56.69
2022-09-23T07:50:31.878Z,55.25
2022-09-23T07:52:58.306Z,54.17
2022-09-23T07:55:24.834Z,53.26
2022-09-23T07:57:51.240Z,50.88
2022-09-23T08:00:18.499Z,50.34
2022-09-23T08:02:47.459Z,49.31
2022-09-23T08:05:16.730Z,49.06
2022-09-23T08:07:43.262Z,48.25
2022-09-23T08:10:10.089Z,46.78
2022-09-23T08:12:36.524Z,45.91
2022-09-23T08:15:03.125Z,44.00
2022-09-23T08:17:29.607Z,42.94
2022-09-23T08:19:56.105Z,42.52
2022-09-23T08:22:22.588Z,41.69
2022-09-23T08:24:49.040Z,41.20
2022-09-23T08:27:15.532Z,40.25
2022-09-23T08:29:42.040Z,40.22
2022-09-23T08:32:08.464Z,40.98
2022-09-23T08:34:35.806Z,42.41
2022-09-23T08:37:02.436Z,41.78
2022-09-23T08:39:29.049Z,41.39
2022-09-23T08:42:21.316Z,41.82
2022-09-23T08:44:54.266Z,40.49
2022-09-23T08:47:35.523Z,42.00
2022-09-23T08:50:22.359Z,43.04
2022-09-23T08:52:58.745Z,43.43
2022-09-23T08:55:34.685Z,44.04
2022-09-23T08:58:26.030Z,41.61
2022-09-23T09:01:07.999Z,42.14
2022-09-23T09:03:40.619Z,41.99
2022-09-23T09:06:14.101Z,41.38
2022-09-23T09:08:43.071Z,40.77
2022-09-23T09:11:12.659Z,40.04
2022-09-23T09:13:50.266Z,42.63
2022-09-23T09:17:01.421Z,40.17
2022-09-23T09:19:32.335Z,39.57
2022-09-23T09:21:59.385Z,39.73
2022-09-23T09:24:33.705Z,39.58
2022-09-23T09:27:11.764Z,40.38
2022-09-23T09:29:49.539Z,41.51
2022-09-23T09:32:52.102Z,41.02
2022-09-23T09:35:26.818Z,40.60
2022-09-23T09:37:53.537Z,40.30
2022-09-23T09:40:20.748Z,39.77
2022-09-23T09:42:49.573Z,39.73
2022-09-23T09:45:43.010Z,39.60
2022-09-23T09:48:20.889Z,38.44
2022-09-23T09:50:52.772Z,39.24
2022-09-23T09:53:19.177Z,39.81
2022-09-23T09:55:48.311Z,37.10
2022-09-23T09:58:16.520Z,35.52
2022-09-23T10:00:44.775Z,35.67
2022-09-23T10:03:14.057Z,38.19
2022-09-23T10:05:46.286Z,35.59
2022-09-23T10:08:18.505Z,35.13
2022-09-23T10:10:55.197Z,32.49
2022-09-23T10:13:24.218Z,30.82
2022-09-23T10:15:54.713Z,30.65
2022-09-23T10:18:47.019Z,31.12
2022-09-23T10:21:17.216Z,32.78
2022-09-23T10:23:52.045Z,31.98
2022-09-23T10:26:28.335Z,31.57
2022-09-23T10:28:55.584Z,32.20
2022-09-23T10:31:30.131Z,29.87
2022-09-23T10:34:02.320Z,30.04
2022-09-23T10:36:31.304Z,30.54
2022-09-23T10:39:23.911Z,31.19
2022-09-23T10:42:25.075Z,30.74
2022-09-23T10:45:38.544Z,27.97
2022-09-23T10:48:32.045Z,32.02
2022-09-23T10:50:59.695Z,30.69
2022-09-23T10:53:50.893Z,28.78
2022-09-23T10:56:40.005Z,28.21
2022-09-23T10:59:27.130Z,28.83
2022-09-23T11:02:02.067Z,29.78
2022-09-23T11:04:52.777Z,27.87
2022-09-23T11:07:37.237Z,29.19
2022-09-23T11:10:45.606Z,30.61
2022-09-23T11:13:35.573Z,32.61
2022-09-23T11:16:10.840Z,31.81
2022-09-23T11:19:15.828Z,30.46
2022-09-23T11:21:58.240Z,30.68
2022-09-23T11:24:31.193Z,31.15
2022-09-23T11:27:26.170Z,33.56
2022-09-23T11:30:06.356Z,32.58
2022-09-23T11:32:57.317Z,31.13
2022-09-23T11:36:01.682Z,29.39
2022-09-23T11:38:36.759Z,30.71
2022-09-23T11:41:27.144Z,32.03
2022-09-23T11:44:03.449Z,33.52
2022-09-23T11:46:39.144Z,35.42
2022-09-23T11:49:09.586Z,36.21
2022-09-23T11:51:43.982Z,36.46
2022-09-23T11:54:46.112Z,36.01
2022-09-23T11:57:26.739Z,35.28
2022-09-23T12:00:03.880Z,35.26
2022-09-23T12:03:04.068Z,33.26
2022-09-23T12:05:44.700Z,33.80
2022-09-23T12:08:25.659Z,34.70
2022-09-23T12:11:08.651Z,37.22
2022-09-23T12:14:10.314Z,35.87
2022-09-23T12:16:45.572Z,37.46
2022-09-23T12:19:21.444Z,37.09
2022-09-23T12:22:12.437Z,33.48
2022-09-23T12:24:50.251Z,32.64
2022-09-23T12:27:32.499Z,31.58
2022-09-23T12:30:03.421Z,31.28
2022-09-23T12:32:30.856Z,32.32
2022-09-23T12:34:59.896Z,31.78
2022-09-23T12:37:35.898Z,33.85
2022-09-23T12:40:19.109Z,33.79
2022-09-23T12:42:47.730Z,29.88
2022-09-23T12:45:43.705Z,29.39
2022-09-23T12:48:15.841Z,29.88
2022-09-23T12:50:55.723Z,29.11
2022-09-23T12:53:34.508Z,31.39
2022-09-23T12:56:14.196Z,32.20
2022-09-23T12:58:43.377Z,31.21
2022-09-23T13:01:15.859Z,31.76
2022-09-23T13:04:15.645Z,32.00
2022-09-23T13:06:57.015Z,33.88
2022-09-23T13:09:28.541Z,34.54
2022-09-23T13:12:00.321Z,36.86
2022-09-23T13:14:28.548Z,36.88
2022-09-23T13:16:58.401Z,36.72
2022-09-23T13:19:27.812Z,37.46
2022-09-23T13:21:54.328Z,36.36
2022-09-23T13:24:24.896Z,34.22
2022-09-23T13:26:51.324Z,31.66
2022-09-23T13:29:24.061Z,31.18
2022-09-23T13:31:50.776Z,33.11
2022-09-23T13:34:21.487Z,33.63
2022-09-23T13:36:48.812Z,34.40
2022-09-23T13:39:20.699Z,34.45
2022-09-23T13:41:47.428Z,31.84
2022-09-23T13:44:20.283Z,32.44
2022-09-23T13:46:52.861Z,30.94
2022-09-23T13:49:24.845Z,30.33
2022-09-23T13:51:54.041Z,29.31
2022-09-23T13:54:30.948Z,29.64
2022-09-23T13:56:58.303Z,29.14
2022-09-23T13:59:29.361Z,29.98
2022-09-23T14:02:13.417Z,29.19
2022-09-23T14:04:40.320Z,28.64
2022-09-23T14:07:09.075Z,29.61
2022-09-23T14:09:37.984Z,26.53
2022-09-23T14:12:06.645Z,27.91
2022-09-23T14:14:37.042Z,30.98
2022-09-23T14:17:06.277Z,31.36
2022-09-23T14:19:35.199Z,31.22
2022-09-23T14:22:01.990Z,32.22
2022-09-23T14:24:36.463Z,33.69
2022-09-23T14:27:18.453Z,35.42
2022-09-23T14:29:48.050Z,37.69
2022-09-23T14:32:20.926Z,37.78
2022-09-23T14:35:06.618Z,36.76
2022-09-23T14:37:57.210Z,37.79
2022-09-23T14:40:32.251Z,38.37
2022-09-23T14:43:02.166Z,38.54
2022-09-23T14:45:33.438Z,39.78
2022-09-23T14:48:14.187Z,40.06
2022-09-23T14:50:48.570Z,41.88
2022-09-23T14:53:23.844Z,43.87
2022-09-23T14:56:16.720Z,44.13
2022-09-23T14:59:23.706Z,44.33
2022-09-23T15:01:50.228Z,44.39
2022-09-23T15:04:28.186Z,46.02
2022-09-23T15:06:56.581Z,45.54
2022-09-23T15:09:27.141Z,44.84
2022-09-23T15:11:57.963Z,45.76
2022-09-23T15:14:37.730Z,45.88
2022-09-23T15:17:13.323Z,46.03
2022-09-23T15:19:40.429Z,46.04
2022-09-23T15:22:09.624Z,47.42
2022-09-23T15:24:46.154Z,47.65
2022-09-23T15:27:31.610Z,48.27
2022-09-23T15:30:05.022Z,48.43
2022-09-23T15:32:31.503Z,49.35
2022-09-23T15:34:57.914Z,50.04
2022-09-23T15:37:24.325Z,50.00
2022-09-23T15:39:51.894Z,51.08
2022-09-23T15:42:18.290Z,51.51
2022-09-23T15:44:44.769Z,51.67
2022-09-23T15:47:18.881Z,51.04
2022-09-23T15:49:48.467Z,51.05
2022-09-23T15:52:15.921Z,51.44
2022-09-23T15:54:43.726Z,52.99
2022-09-23T15:57:10.361Z,53.48
2022-09-23T15:59:38.127Z,53.23
2022-09-23T16:02:21.209Z,51.74
2022-09-23T16:04:50.233Z,51.23
2022-09-23T16:07:16.991Z,51.75
2022-09-23T16:09:43.409Z,51.74
2022-09-23T16:12:11.876Z,53.09
2022-09-23T16:14:38.415Z,54.37
2022-09-23T16:17:05.110Z,54.71
2022-09-23T16:19:34.121Z,55.80
2022-09-23T16:22:00.673Z,55.08
2022-09-23T16:24:28.320Z,55.64
2022-09-23T16:26:59.835Z,55.85
2022-09-23T16:29:27.422Z,56.18
2022-09-23T16:31:53.945Z,56.95
2022-09-23T16:34:20.592Z,57.65
2022-09-23T16:36:47.252Z,57.83
2022-09-23T16:39:13.906Z,57.33
2022-09-23T16:41:42.790Z,58.08
2022-09-23T16:44:10.611Z,59.16
2022-09-23T16:46:37.068Z,58.95
2022-09-23T16:49:03.692Z,59.41
2022-09-23T16:51:41.836Z,60.70
2022-09-23T16:54:11.400Z,62.75
2022-09-23T16:56:45.159Z,62.80
2022-09-23T16:59:18.312Z,63.46
2022-09-23T17:02:03.517Z,63.08
2022-09-23T17:04:30.036Z,64.26
2022-09-23T17:06:56.634Z,63.34
2022-09-23T17:09:26.440Z,65.04
2022-09-23T17:12:01.032Z,64.49
2022-09-23T17:14:29.811Z,64.82
2022-09-23T17:16:58.521Z,64.65
2022-09-23T17:19:24.929Z,64.54
2022-09-23T17:21:53.236Z,65.80
2022-09-23T17:24:19.656Z,65.92
2022-09-23T17:26:49.343Z,66.61
2022-09-23T17:29:19.113Z,67.89
2022-09-23T17:31:46.660Z,68.15
2022-09-23T17:34:13.252Z,68.07
2022-09-23T17:36:40.378Z,68.52
2022-09-23T17:39:07.024Z,68.85
2022-09-23T17:41:33.478Z,69.10
2022-09-23T17:44:00.572Z,69.60
2022-09-23T17:46:30.881Z,70.53
2022-09-23T17:48:57.834Z,70.93
2022-09-23T17:51:25.328Z,71.42
2022-09-23T17:53:51.973Z,72.16
2022-09-23T17:56:19.731Z,72.17
2022-09-23T17:58:47.642Z,71.90
2022-09-23T18:01:25.617Z,70.93
2022-09-23T18:03:56.889Z,71.87
2022-09-23T18:06:25.535Z,72.55
2022-09-23T18:08:52.675Z,73.22
2022-09-23T18:11:24.669Z,73.84
2022-09-23T18:13:53.575Z,74.68
2022-09-23T18:16:22.922Z,74.55
2022-09-23T18:18:54.166Z,75.12
2022-09-23T18:21:21.601Z,74.44
2022-09-23T18:23:48.623Z,74.14
2022-09-23T18:26:16.704Z,74.29
2022-09-23T18:28:43.554Z,74.69
2022-09-23T18:31:11.300Z,75.16
2022-09-23T18:33:38.108Z,74.97
2022-09-23T18:36:05.270Z,75.37
2022-09-23T18:38:31.943Z,76.23
2022-09-23T18:41:00.211Z,76.04
2022-09-23T18:43:37.416Z,76.48
2022-09-23T18:46:09.585Z,76.96
2022-09-23T18:48:54.566Z,77.37
2022-09-23T18:51:25.396Z,77.19
2022-09-23T18:53:57.490Z,77.18
2022-09-23T18:56:37.130Z,78.11
2022-09-23T18:59:06.237Z,77.95
2022-09-23T19:01:33.702Z,77.80
2022-09-23T19:04:04.348Z,78.13
2022-09-23T19:06:35.293Z,78.16
2022-09-23T19:09:01.905Z,77.87
2022-09-23T19:11:28.379Z,78.32
2022-09-23T19:13:56.502Z,79.49
2022-09-23T19:16:24.017Z,78.81
2022-09-23T19:18:50.689Z,78.70
2022-09-23T19:21:20.270Z,78.32
2022-09-23T19:23:49.377Z,78.54
2022-09-23T19:26:28.384Z,78.69
2022-09-23T19:28:56.554Z,79.19
2022-09-23T19:31:25.734Z,79.46
2022-09-23T19:33:57.137Z,79.78
2022-09-23T19:36:25.990Z,79.71
2022-09-23T19:38:54.211Z,80.04
2022-09-23T19:41:20.630Z,80.34
2022-09-23T19:43:48.784Z,80.14
2022-09-23T19:46:15.788Z,80.39
2022-09-23T19:48:42.405Z,81.45
2022-09-23T19:51:08.838Z,81.47
2022-09-23T19:53:35.234Z,80.89
2022-09-23T19:56:05.729Z,80.60
2022-09-23T19:58:32.975Z,81.61
2022-09-23T20:00:59.439Z,80.49
2022-09-23T20:03:26.867Z,81.37
2022-09-23T20:05:57.194Z,81.84
2022-09-23T20:08:24.614Z,81.53
2022-09-23T20:10:51.040Z,81.64
2022-09-23T20:13:17.510Z,82.44
2022-09-23T20:15:48.741Z,82.96
2022-09-23T20:18:15.391Z,83.30
2022-09-23T20:20:42.032Z,83.70
2022-09-23T20:23:08.416Z,83.04
2022-09-23T20:25:54.775Z,83.52
2022-09-23T20:28:22.442Z,83.39
2022-09-23T20:30:48.939Z,84.33
2022-09-23T20:33:15.556Z,83.10
2022-09-23T20:35:43.935Z,83.38
2022-09-23T20:38:10.518Z,83.27
2022-09-23T20:40:38.499Z,84.70
2022-09-23T20:43:05.236Z,84.35
2022-09-23T20:45:31.909Z,84.99
2022-09-23T20:48:00.116Z,84.89
2022-09-23T20:50:26.742Z,85.28
2022-09-23T20:52:53.224Z,85.25
2022-09-23T20:55:19.644Z,85.29
2022-09-23T20:57:48.264Z,84.61
2022-09-23T21:00:15.081Z,85.63
2022-09-23T21:02:43.566Z,85.71
2022-09-23T21:05:10.444Z,85.39
2022-09-23T21:07:37.463Z,86.94
2022-09-23T21:10:06.805Z,87.06
2022-09-23T21:12:33.252Z,86.23
2022-09-23T21:14:59.627Z,86.73
2022-09-23T21:17:26.842Z,85.96
2022-09-23T21:19:53.295Z,84.99
2022-09-23T21:22:19.681Z,85.02
2022-09-23T21:25:25.885Z,84.61
2022-09-23T21:27:33.326Z,84.99
2022-09-23T21:30:00.486Z,85.39
2022-09-23T21:32:26.855Z,85.22
2022-09-23T21:34:53.313Z,85.05
2022-09-23T21:37:19.674Z,85.54
2022-09-23T21:40:06.114Z,86.25
2022-09-23T21:42:32.646Z,86.15
2022-09-23T21:44:59.029Z,86.36
2022-09-23T21:47:26.386Z,86.66
2022-09-23T21:49:52.756Z,86.25
2022-09-23T21:52:19.164Z,86.97
2022-09-23T21:54:46.332Z,86.55
2022-09-23T21:57:13.909Z,86.74
2022-09-23T21:59:40.324Z,86.94
2022-09-23T22:02:06.700Z,87.46
2022-09-23T22:04:34.349Z,86.75
2022-09-23T22:07:01.314Z,87.34
2022-09-23T22:09:27.792Z,87.43
2022-09-23T22:12:08.442Z,87.95
2022-09-23T22:14:35.509Z,87.85
2022-09-23T22:17:04.406Z,87.72
2022-09-23T22:19:34.772Z,87.88
2022-09-23T22:22:05.457Z,87.56
2022-09-23T22:24:31.835Z,87.53
2022-09-23T22:26:58.253Z,89.40
2022-09-23T22:29:43.198Z,89.88
2022-09-23T22:32:30.292Z,89.71
2022-09-23T22:34:57.347Z,88.42
2022-09-23T22:37:27.158Z,88.08
2022-09-23T22:39:54.540Z,87.68
2022-09-23T22:42:24.183Z,86.77
2022-09-23T22:44:51.539Z,86.59
2022-09-23T22:47:19.495Z,86.37
2022-09-23T22:49:46.627Z,86.96
2022-09-23T22:52:15.839Z,87.94
2022-09-23T22:54:42.245Z,87.46
2022-09-23T22:57:09.102Z,88.09
2022-09-23T22:59:37.260Z,88.78
2022-09-23T23:02:05.182Z,88.19
2022-09-23T23:04:31.819Z,88.07
2022-09-23T23:06:58.758Z,87.83
2022-09-23T23:09:25.747Z,87.45
2022-09-23T23:11:52.182Z,87.67
2022-09-23T23:14:19.021Z,87.18
2022-09-23T23:16:46.281Z,87.29
2022-09-23T23:19:16.390Z,87.81
2022-09-23T23:21:44.714Z,87.79
2022-09-23T23:24:19.700Z,87.84
2022-09-23T23:26:46.882Z,87.51
2022-09-23T23:29:15.942Z,87.50
2022-09-23T23:31:42.763Z,88.03
2022-09-23T23:34:18.107Z,87.98
2022-09-23T23:36:45.742Z,88.28
2022-09-23T23:39:13.449Z,88.85
2022-09-23T23:41:41.409Z,88.66
2022-09-23T23:44:07.916Z,88.22
2022-09-23T23:46:35.311Z,88.51
2022-09-23T23:49:01.860Z,88.17
2022-09-23T23:51:28.321Z,88.38
2022-09-23T23:53:56.042Z,88.09
2022-09-23T23:56:24.477Z,87.94
2022-09-23T23:58:59.086Z,88.48
